Time;durP1;ratioP1;P1;durP2;ratioP2;P2;SDS_P1;SDS_P2;PMS_P1;PMS_P2;Temp;Humidity;BMP_temperature;BMP_pressure;BME280_temperature;BME280_humidity;BME280_pressure;Samples;Min_cycle;Max_cycle;Signal;HPM_P1;HPM_P2
2021/01/25 00:01:04;;;;;;;20.67;14.93;;;1.50;99.90;;;;;;5074095;28;37756;-75
2021/01/25 00:03:31;;;;;;;25.17;17.50;;;1.50;99.90;;;;;;5084415;28;37822;-76
2021/01/25 00:05:57;;;;;;;20.63;15.17;;;1.50;99.90;;;;;;5088130;28;39403;-77
2021/01/25 00:08:24;;;;;;;21.37;14.67;;;1.50;99.90;;;;;;5081149;28;37371;-76
2021/01/25 00:10:50;;;;;;;25.73;15.93;;;1.40;99.90;;;;;;5085397;28;36310;-76
2021/01/25 00:13:16;;;;;;;27.10;16.63;;;1.40;99.90;;;;;;5076752;28;39078;-76
2021/01/25 00:15:42;;;;;;;21.87;15.90;;;1.40;99.90;;;;;;5076071;28;37568;-77
2021/01/25 00:18:08;;;;;;;23.33;15.10;;;1.40;99.90;;;;;;5082148;28;38491;-76
2021/01/25 00:20:34;;;;;;;23.10;16.77;;;1.40;99.90;;;;;;5092264;28;38282;-76
2021/01/25 00:23:00;;;;;;;17.10;13.73;;;1.40;99.90;;;;;;5084451;28;39315;-76
2021/01/25 00:25:27;;;;;;;23.60;17.13;;;1.40;99.90;;;;;;5085078;28;39269;-76
2021/01/25 00:27:53;;;;;;;25.23;15.80;;;1.40;99.90;;;;;;5082724;28;38536;-76
2021/01/25 00:30:20;;;;;;;21.30;14.87;;;1.40;99.90;;;;;;5069397;28;37168;-76
2021/01/25 00:32:46;;;;;;;22.67;14.97;;;1.30;99.90;;;;;;5089896;28;39007;-76
2021/01/25 00:35:13;;;;;;;22.33;16.87;;;1.30;99.90;;;;;;5082488;28;38774;-76
2021/01/25 00:37:39;;;;;;;24.37;15.20;;;1.30;99.90;;;;;;5078714;28;38816;-76
2021/01/25 00:40:06;;;;;;;22.20;15.57;;;1.30;99.90;;;;;;5074758;28;38881;-76
2021/01/25 00:42:35;;;;;;;17.83;13.83;;;1.30;99.90;;;;;;5076020;28;41051;-76
2021/01/25 00:45:05;;;;;;;19.00;14.57;;;1.20;99.90;;;;;;5082530;28;39726;-77
2021/01/25 00:47:32;;;;;;;23.83;16.97;;;1.20;99.90;;;;;;5066866;28;47392;-77
2021/01/25 00:49:58;;;;;;;18.57;13.77;;;1.20;99.90;;;;;;5067881;28;39375;-77
2021/01/25 00:52:24;;;;;;;19.07;13.83;;;1.20;99.90;;;;;;5082165;28;40630;-77
2021/01/25 00:54:50;;;;;;;21.40;15.00;;;1.30;99.90;;;;;;5074964;28;40276;-76
2021/01/25 00:57:16;;;;;;;18.57;12.87;;;1.30;99.90;;;;;;5093330;28;39446;-76
2021/01/25 00:59:43;;;;;;;22.93;15.10;;;1.30;99.90;;;;;;5077350;28;37653;-76
2021/01/25 01:02:11;;;;;;;23.63;15.17;;;1.30;99.90;;;;;;5070595;28;40682;-76
2021/01/25 01:04:37;;;;;;;21.07;14.37;;;1.30;99.90;;;;;;5084760;28;38516;-76
2021/01/25 01:07:04;;;;;;;18.03;14.17;;;1.30;99.90;;;;;;5081583;28;38557;-75
2021/01/25 01:09:30;;;;;;;20.77;13.63;;;1.30;99.90;;;;;;5072957;28;38231;-76
2021/01/25 01:11:56;;;;;;;18.30;14.13;;;1.30;99.90;;;;;;5083112;28;38973;-76
2021/01/25 01:14:24;;;;;;;22.23;14.87;;;1.40;99.90;;;;;;5094532;28;37821;-76
2021/01/25 01:16:50;;;;;;;18.47;14.40;;;1.40;99.90;;;;;;5094475;28;38600;-75
2021/01/25 01:19:17;;;;;;;16.13;12.27;;;1.40;99.90;;;;;;5061315;28;37989;-76
2021/01/25 01:21:43;;;;;;;21.63;13.10;;;1.40;99.90;;;;;;5074767;28;37883;-76
2021/01/25 01:24:09;;;;;;;19.97;13.47;;;1.40;99.90;;;;;;5060459;28;39376;-76
2021/01/25 01:26:36;;;;;;;19.53;13.63;;;1.40;99.90;;;;;;5085336;28;39616;-76
2021/01/25 01:29:02;;;;;;;19.27;13.17;;;1.40;99.90;;;;;;5084646;28;35105;-76
2021/01/25 01:31:29;;;;;;;19.97;15.37;;;1.40;99.90;;;;;;5069759;28;38934;-76
2021/01/25 01:33:55;;;;;;;23.50;17.40;;;1.40;99.90;;;;;;5086430;28;38128;-76
2021/01/25 01:36:21;;;;;;;21.13;13.93;;;1.40;99.90;;;;;;5077316;28;39687;-76
2021/01/25 01:38:47;;;;;;;24.53;16.20;;;1.40;99.90;;;;;;5080578;28;38251;-76
2021/01/25 01:41:13;;;;;;;21.93;16.00;;;1.40;99.90;;;;;;5084972;28;39287;-76
2021/01/25 01:43:39;;;;;;;24.03;16.93;;;1.40;99.90;;;;;;5088718;28;37944;-76
2021/01/25 01:46:05;;;;;;;23.97;16.40;;;1.40;99.90;;;;;;5082999;28;37423;-76
2021/01/25 01:48:32;;;;;;;21.90;16.97;;;1.40;99.90;;;;;;5076913;28;37378;-76
2021/01/25 01:50:58;;;;;;;22.03;17.07;;;1.40;99.90;;;;;;5077465;28;39850;-76
2021/01/25 01:53:24;;;;;;;24.23;17.20;;;1.40;99.90;;;;;;5069092;28;39162;-76
2021/01/25 01:55:50;;;;;;;27.43;20.10;;;1.40;99.90;;;;;;5069901;28;39518;-76
2021/01/25 01:58:18;;;;;;;29.63;20.60;;;1.40;99.90;;;;;;5076435;28;37428;-77
2021/01/25 02:00:45;;;;;;;27.70;19.90;;;1.40;99.90;;;;;;5082446;28;38418;-77
2021/01/25 02:03:11;;;;;;;28.80;20.50;;;1.40;99.90;;;;;;5070826;28;39435;-76
2021/01/25 02:05:40;;;;;;;33.53;22.10;;;1.40;99.90;;;;;;5101241;27;38853;-77
2021/01/25 02:08:08;;;;;;;31.83;22.77;;;1.30;99.90;;;;;;5099125;28;37545;-77
2021/01/25 02:10:34;;;;;;;35.00;23.27;;;1.30;99.90;;;;;;5093813;28;38056;-76
2021/01/25 02:13:01;;;;;;;30.50;21.77;;;1.40;99.90;;;;;;5088622;28;39597;-76
2021/01/25 02:15:30;;;;;;;30.67;22.17;;;1.30;99.90;;;;;;5081522;28;49150;-76
2021/01/25 02:17:57;;;;;;;35.23;24.63;;;1.30;99.90;;;;;;5076469;28;38163;-76
2021/01/25 02:20:29;;;;;;;34.10;24.07;;;1.30;99.90;;;;;;5053371;28;39837;-76
2021/01/25 02:23:18;;;;;;;39.95;26.45;;;1.40;99.90;;;;;;5081543;28;38567;-76
2021/01/25 02:26:09;;;;;;;37.93;24.83;;;1.40;99.90;;;;;;5086063;28;48575;-76
2021/01/25 02:28:40;;;;;;;33.07;23.47;;;1.40;99.90;;;;;;5067679;28;47346;-76
2021/01/25 02:31:09;;;;;;;39.90;26.83;;;1.50;99.90;;;;;;5077439;28;39879;-76
2021/01/25 02:33:41;;;;;;;39.13;26.30;;;1.50;99.90;;;;;;5073158;28;40380;-76
2021/01/25 02:36:08;;;;;;;49.17;30.05;;;1.50;99.90;;;;;;5086357;28;39345;-76
2021/01/25 02:38:36;;;;;;;40.30;26.70;;;1.50;99.90;;;;;;5082625;28;37780;-76
2021/01/25 02:41:03;;;;;;;41.80;27.63;;;1.50;99.90;;;;;;5083942;28;38375;-76
2021/01/25 02:43:30;;;;;;;38.37;27.10;;;1.50;99.90;;;;;;5076690;28;39372;-77
2021/01/25 02:45:57;;;;;;;40.53;27.63;;;1.60;99.90;;;;;;5086593;28;40087;-76
2021/01/25 02:48:24;;;;;;;41.07;27.30;;;1.60;99.90;;;;;;5078790;28;38341;-76
2021/01/25 02:50:51;;;;;;;45.00;29.43;;;1.60;99.90;;;;;;5084545;28;38762;-76
2021/01/25 02:53:18;;;;;;;42.80;28.70;;;1.60;99.90;;;;;;5083165;28;39234;-75
2021/01/25 02:55:48;;;;;;;50.83;30.90;;;1.60;99.90;;;;;;5075732;28;39176;-76
2021/01/25 02:58:14;;;;;;;38.40;26.97;;;1.60;99.90;;;;;;5089783;28;37830;-76
2021/01/25 03:00:41;;;;;;;41.50;27.40;;;1.60;99.90;;;;;;5069319;28;40254;-76
2021/01/25 03:03:08;;;;;;;46.20;28.13;;;1.60;99.90;;;;;;5097042;28;38945;-76
2021/01/25 03:05:35;;;;;;;47.50;29.83;;;1.60;99.90;;;;;;5064391;28;39764;-76
2021/01/25 03:08:04;;;;;;;36.53;26.73;;;1.60;99.90;;;;;;5069060;28;36499;-76
2021/01/25 03:10:31;;;;;;;39.33;26.93;;;1.60;99.90;;;;;;5073966;28;39337;-76
2021/01/25 03:13:04;;;;;;;41.80;27.65;;;1.60;99.90;;;;;;5085719;28;40004;-76
2021/01/25 03:15:33;;;;;;;47.10;29.30;;;1.60;99.90;;;;;;5079026;28;47321;-76
2021/01/25 03:18:00;;;;;;;40.37;27.60;;;1.60;99.90;;;;;;5075520;28;38230;-76
2021/01/25 03:20:26;;;;;;;42.00;27.83;;;1.60;99.90;;;;;;5070163;28;38694;-76
2021/01/25 03:22:52;;;;;;;37.77;26.63;;;1.60;99.90;;;;;;5088331;28;37573;-76
2021/01/25 03:25:18;;;;;;;44.27;27.77;;;1.60;99.90;;;;;;5084382;28;39902;-76
2021/01/25 03:27:44;;;;;;;48.63;31.93;;;1.60;99.90;;;;;;5079115;28;37616;-76
2021/01/25 03:30:11;;;;;;;37.87;25.30;;;1.60;99.90;;;;;;5097647;28;39605;-76
2021/01/25 03:32:39;;;;;;;51.77;32.87;;;1.60;99.90;;;;;;5091779;28;20072;-76
2021/01/25 03:35:09;;;;;;;42.67;28.80;;;1.60;99.90;;;;;;5075880;28;38732;-76
2021/01/25 03:37:36;;;;;;;39.20;26.40;;;1.60;99.90;;;;;;5095927;28;38717;-76
2021/01/25 03:40:07;;;;;;;39.23;25.83;;;1.60;99.90;;;;;;5090960;28;39938;-76
2021/01/25 03:42:34;;;;;;;36.13;25.00;;;1.60;99.90;;;;;;5079652;28;48567;-76
2021/01/25 03:45:00;;;;;;;53.90;31.13;;;1.60;99.90;;;;;;5080223;28;38640;-75
2021/01/25 03:47:26;;;;;;;41.20;27.30;;;1.60;99.90;;;;;;5074272;28;38552;-76
2021/01/25 03:49:53;;;;;;;41.87;26.67;;;1.60;99.90;;;;;;5081422;28;38732;-76
2021/01/25 03:52:19;;;;;;;41.83;27.80;;;1.60;99.90;;;;;;5086839;28;40211;-76
2021/01/25 03:54:45;;;;;;;38.07;27.37;;;1.70;99.90;;;;;;5078678;28;40697;-76
2021/01/25 03:57:11;;;;;;;39.50;27.80;;;1.70;99.90;;;;;;5070080;28;38878;-76
2021/01/25 03:59:37;;;;;;;40.87;27.83;;;1.60;99.90;;;;;;5086914;28;39224;-76
2021/01/25 04:02:03;;;;;;;42.70;28.77;;;1.60;99.90;;;;;;5080911;28;39843;-76
2021/01/25 04:04:29;;;;;;;44.27;30.17;;;1.60;99.90;;;;;;5080722;28;39454;-76
2021/01/25 04:06:56;;;;;;;43.37;29.57;;;1.60;99.90;;;;;;5078688;28;38147;-76
2021/01/25 04:09:22;;;;;;;49.47;31.87;;;1.70;99.90;;;;;;5077502;28;40860;-76
2021/01/25 04:11:48;;;;;;;45.50;29.60;;;1.70;99.90;;;;;;5061885;28;39750;-76
2021/01/25 04:14:14;;;;;;;45.27;28.33;;;1.60;99.90;;;;;;5055555;28;39671;-76
2021/01/25 04:16:40;;;;;;;48.10;29.77;;;1.60;99.90;;;;;;5068642;28;35094;-76
2021/01/25 04:19:06;;;;;;;43.67;29.10;;;1.60;99.90;;;;;;5079192;28;40068;-76
2021/01/25 04:21:33;;;;;;;50.07;29.63;;;1.60;99.90;;;;;;5073230;28;39603;-77
2021/01/25 04:23:59;;;;;;;50.03;29.67;;;1.60;99.90;;;;;;5081666;28;39372;-76
2021/01/25 04:26:25;;;;;;;44.40;29.10;;;1.70;99.90;;;;;;5071576;28;37385;-76
2021/01/25 04:28:52;;;;;;;52.27;31.23;;;1.70;99.90;;;;;;5086322;28;39351;-75
2021/01/25 04:31:18;;;;;;;45.53;28.97;;;1.70;99.90;;;;;;5083254;28;39433;-75
2021/01/25 04:33:44;;;;;;;44.03;28.53;;;1.80;99.90;;;;;;5081649;28;37316;-76
2021/01/25 04:36:10;;;;;;;49.57;29.23;;;1.80;99.90;;;;;;5081346;28;36025;-76
2021/01/25 04:38:37;;;;;;;43.37;28.13;;;1.80;99.90;;;;;;5077276;28;39452;-75
2021/01/25 04:41:03;;;;;;;41.20;26.60;;;1.80;99.90;;;;;;5067261;28;42405;-76
2021/01/25 04:43:30;;;;;;;38.53;25.37;;;1.80;99.90;;;;;;5080367;28;39041;-76
2021/01/25 04:45:57;;;;;;;37.27;25.23;;;1.80;99.90;;;;;;5089531;28;37037;-76
2021/01/25 04:48:26;;;;;;;40.37;27.20;;;1.70;99.90;;;;;;5072211;28;39076;-74
2021/01/25 04:50:55;;;;;;;39.63;26.90;;;1.80;99.90;;;;;;5071277;28;38941;-74
2021/01/25 04:53:21;;;;;;;41.87;26.37;;;1.70;99.90;;;;;;5073178;28;38102;-76
2021/01/25 04:55:49;;;;;;;42.30;27.13;;;1.70;99.90;;;;;;5072756;28;39531;-75
2021/01/25 04:58:17;;;;;;;41.80;26.33;;;1.70;99.90;;;;;;5065782;28;39817;-75
2021/01/25 05:00:43;;;;;;;40.43;26.00;;;1.70;99.90;;;;;;5064281;28;39834;-75
2021/01/25 05:03:10;;;;;;;36.73;25.97;;;1.80;99.90;;;;;;5064468;28;40316;-75
2021/01/25 05:05:36;;;;;;;39.70;27.77;;;1.80;99.90;;;;;;5080125;28;37853;-76
2021/01/25 05:08:02;;;;;;;41.70;27.77;;;1.80;99.90;;;;;;5089418;28;38938;-74
2021/01/25 05:10:31;;;;;;;41.67;27.27;;;1.70;99.90;;;;;;5059908;28;39261;-76
2021/01/25 05:12:57;;;;;;;41.70;25.93;;;1.70;99.90;;;;;;5068448;28;38509;-75
2021/01/25 05:15:32;;;;;;;39.33;26.10;;;1.70;99.90;;;;;;5064650;27;37917;-75
2021/01/25 05:18:02;;;;;;;39.53;25.63;;;1.60;99.90;;;;;;5080867;28;39718;-75
2021/01/25 05:20:30;;;;;;;42.77;26.07;;;1.60;99.90;;;;;;5086141;28;48975;-75
2021/01/25 05:22:58;;;;;;;42.27;28.20;;;1.50;99.90;;;;;;5073645;28;38450;-76
2021/01/25 05:25:28;;;;;;;45.33;29.60;;;1.40;99.90;;;;;;5085930;28;37426;-76
2021/01/25 05:27:55;;;;;;;44.10;28.97;;;1.30;99.90;;;;;;5059543;28;40683;-75
2021/01/25 05:30:22;;;;;;;38.50;25.83;;;1.30;99.90;;;;;;5054642;28;40502;-76
2021/01/25 05:32:50;;;;;;;49.00;29.80;;;1.30;99.90;;;;;;5073083;28;36117;-76
2021/01/25 05:35:19;;;;;;;47.90;29.67;;;1.20;99.90;;;;;;5079080;28;38338;-76
2021/01/25 05:38:05;;;;;;;46.00;28.37;;;1.20;99.90;;;;;;5089194;28;38693;-76
2021/01/25 05:40:33;;;;;;;46.53;27.63;;;1.20;99.90;;;;;;5077283;28;48364;-75
2021/01/25 05:43:00;;;;;;;56.17;31.67;;;1.10;99.90;;;;;;5077695;28;40172;-75
2021/01/25 05:45:30;;;;;;;48.10;29.27;;;1.20;99.90;;;;;;5071765;28;37465;-75
2021/01/25 05:47:58;;;;;;;45.20;30.00;;;1.20;99.90;;;;;;5078441;28;39349;-75
2021/01/25 05:50:24;;;;;;;48.90;29.60;;;1.20;99.90;;;;;;5080889;28;39844;-76
2021/01/25 05:52:52;;;;;;;50.10;30.17;;;1.20;99.90;;;;;;5079584;28;40400;-76
2021/01/25 05:55:19;;;;;;;40.77;26.60;;;1.10;99.90;;;;;;5087747;28;38371;-76
2021/01/25 05:57:46;;;;;;;55.40;29.70;;;1.00;99.90;;;;;;5089260;28;38887;-76
2021/01/25 06:00:13;;;;;;;39.07;25.90;;;1.00;99.90;;;;;;5091739;28;38346;-75
2021/01/25 06:02:46;;;;;;;40.53;24.90;;;0.90;99.90;;;;;;5081725;28;38507;-76
2021/01/25 06:05:34;;;;;;;39.87;24.57;;;0.80;99.90;;;;;;5078453;28;38679;-76
2021/01/25 06:08:29;;;;;;;36.17;24.27;;;0.70;99.90;;;;;;5076529;28;38636;-76
2021/01/25 06:11:03;;;;;;;48.20;28.53;;;0.60;99.90;;;;;;5077219;28;49169;-76
2021/01/25 06:13:41;;;;;;;41.17;25.17;;;0.60;99.90;;;;;;5082946;27;48646;-75
2021/01/25 06:16:11;;;;;;;46.03;28.50;;;0.60;99.90;;;;;;5084874;28;37633;-75
2021/01/25 06:18:41;;;;;;;44.03;27.83;;;0.50;99.90;;;;;;5066686;28;39710;-75
2021/01/25 06:21:09;;;;;;;35.10;22.57;;;0.50;99.90;;;;;;5066460;28;38840;-75
2021/01/25 06:23:36;;;;;;;37.40;23.80;;;0.50;99.90;;;;;;5070024;28;40455;-75
2021/01/25 06:26:04;;;;;;;37.10;25.03;;;0.50;99.90;;;;;;5063263;28;37175;-75
2021/01/25 06:28:32;;;;;;;50.80;29.30;;;0.50;99.90;;;;;;5082857;28;38269;-75
2021/01/25 06:30:59;;;;;;;49.20;29.87;;;0.50;99.90;;;;;;5069290;28;39872;-75
2021/01/25 06:33:25;;;;;;;41.10;26.23;;;0.50;99.90;;;;;;5091101;28;38148;-75
2021/01/25 06:35:52;;;;;;;43.63;27.23;;;0.50;99.90;;;;;;5081897;28;37643;-75
2021/01/25 06:38:20;;;;;;;48.63;31.07;;;0.50;99.90;;;;;;5060307;28;39722;-75
2021/01/25 06:40:48;;;;;;;44.90;28.63;;;0.40;99.90;;;;;;5059430;28;39367;-75
2021/01/25 06:43:16;;;;;;;46.73;29.70;;;0.50;99.90;;;;;;5071901;28;38831;-75
2021/01/25 06:45:44;;;;;;;47.20;27.97;;;0.50;99.90;;;;;;5068312;28;38187;-75
2021/01/25 06:48:15;;;;;;;47.13;29.73;;;0.40;99.90;;;;;;5074021;28;38189;-75
2021/01/25 06:50:44;;;;;;;44.50;28.83;;;0.30;99.90;;;;;;5071742;28;37083;-74
2021/01/25 06:53:11;;;;;;;55.80;32.43;;;0.20;99.90;;;;;;5078395;28;38127;-75
2021/01/25 06:55:41;;;;;;;45.17;28.07;;;0.20;99.90;;;;;;5068185;28;36528;-75
2021/01/25 06:58:10;;;;;;;45.87;26.73;;;0.10;99.90;;;;;;5073128;28;39603;-74
2021/01/25 07:00:38;;;;;;;42.93;26.63;;;0.00;99.90;;;;;;5090128;28;38460;-74
2021/01/25 07:03:05;;;;;;;51.23;29.87;;;0.00;99.90;;;;;;5080093;28;38927;-75
2021/01/25 07:05:36;;;;;;;57.80;33.23;;;0.00;99.90;;;;;;5084205;28;39168;-75
2021/01/25 07:08:18;;;;;;;52.97;29.53;;;0.00;99.90;;;;;;5063515;28;39571;-74
2021/01/25 07:10:54;;;;;;;66.47;37.23;;;0.00;99.90;;;;;;5091087;28;39328;-75
2021/01/25 07:13:25;;;;;;;51.90;30.33;;;0.00;99.90;;;;;;5068544;28;38807;-75
2021/01/25 07:15:53;;;;;;;46.60;28.33;;;0.00;99.90;;;;;;5070346;28;36629;-75
2021/01/25 07:18:21;;;;;;;39.50;26.50;;;0.00;99.90;;;;;;5088704;28;39486;-76
2021/01/25 07:20:48;;;;;;;46.27;28.77;;;0.00;99.90;;;;;;5102481;28;40049;-75
2021/01/25 07:23:19;;;;;;;43.13;27.40;;;0.00;99.90;;;;;;5068330;28;38746;-75
2021/01/25 07:25:53;;;;;;;48.87;29.80;;;-0.10;99.90;;;;;;5073904;28;37468;-75
2021/01/25 07:28:21;;;;;;;49.17;30.13;;;-0.10;99.90;;;;;;5085777;28;38489;-75
2021/01/25 07:30:48;;;;;;;50.13;31.20;;;-0.20;99.90;;;;;;5092414;28;39650;-75
2021/01/25 07:33:14;;;;;;;65.50;31.33;;;-0.20;99.90;;;;;;5088759;28;40807;-75
2021/01/25 07:35:40;;;;;;;48.47;29.67;;;-0.30;99.90;;;;;;5076623;28;39026;-75
2021/01/25 07:38:06;;;;;;;53.33;29.40;;;-0.30;99.90;;;;;;5093043;28;40876;-75
2021/01/25 07:40:33;;;;;;;51.43;29.80;;;-0.30;99.90;;;;;;5063380;28;39125;-75
2021/01/25 07:43:04;;;;;;;52.53;30.57;;;-0.40;99.90;;;;;;5068500;28;39293;-75
2021/01/25 07:45:30;;;;;;;49.30;30.43;;;-0.40;99.90;;;;;;5074328;28;47931;-75
2021/01/25 07:47:57;;;;;;;49.33;29.50;;;-0.50;99.90;;;;;;5097878;28;39704;-75
2021/01/25 07:50:23;;;;;;;46.40;28.17;;;-0.60;99.90;;;;;;5085953;28;39618;-75
2021/01/25 07:53:00;;;;;;;51.50;30.20;;;-0.60;99.90;;;;;;5081377;28;40195;-75
2021/01/25 07:55:27;;;;;;;52.30;31.80;;;-0.60;99.90;;;;;;5072571;28;40238;-75
2021/01/25 07:58:00;;;;;;;58.57;33.77;;;-0.70;99.90;;;;;;5083734;28;38857;-75
2021/01/25 08:00:28;;;;;;;68.32;36.17;;;-0.70;99.90;;;;;;5073708;28;37997;-75
2021/01/25 08:03:00;;;;;;;66.13;34.50;;;-0.70;99.90;;;;;;5073679;28;37561;-75
2021/01/25 08:05:27;;;;;;;52.55;29.60;;;-0.80;99.90;;;;;;5089023;28;47449;-75
2021/01/25 08:07:54;;;;;;;52.90;30.30;;;-0.70;99.90;;;;;;5086542;28;39665;-76
2021/01/25 08:10:20;;;;;;;70.63;36.33;;;-0.70;99.90;;;;;;5093116;28;38925;-75
2021/01/25 08:12:48;;;;;;;61.40;34.60;;;-0.60;99.90;;;;;;5074048;28;38559;-75
2021/01/25 08:15:29;;;;;;;66.53;32.00;;;-0.60;99.90;;;;;;5064502;28;36515;-75
2021/01/25 08:18:03;;;;;;;54.93;33.17;;;-0.70;99.90;;;;;;5082480;28;38595;-75
2021/01/25 08:20:33;;;;;;;51.30;31.07;;;-0.70;99.90;;;;;;5090140;28;49133;-76
2021/01/25 08:23:19;;;;;;;49.27;29.77;;;-0.70;99.90;;;;;;5056045;28;37397;-75
2021/01/25 08:26:01;;;;;;;59.77;35.00;;;-0.70;99.90;;;;;;5080855;27;48344;-74
2021/01/25 08:28:30;;;;;;;;;;;-0.70;99.90;;;;;;5087876;28;48892;-74
2021/01/25 08:31:08;;;;;;;62.73;33.27;;;-0.70;99.90;;;;;;5077598;28;40140;-74
2021/01/25 08:33:38;;;;;;;50.57;31.37;;;-0.60;99.90;;;;;;5081012;28;47208;-74
2021/01/25 08:36:05;;;;;;;59.30;33.43;;;-0.70;99.90;;;;;;5084409;28;37264;-74
2021/01/25 08:38:34;;;;;;;55.03;31.20;;;-0.70;99.90;;;;;;5076388;28;38468;-76
2021/01/25 08:41:13;;;;;;;57.17;34.83;;;-0.60;99.90;;;;;;5086176;28;38742;-74
2021/01/25 08:43:40;;;;;;;65.27;34.50;;;-0.50;99.90;;;;;;5074465;28;47409;-74
2021/01/25 08:46:15;;;;;;;65.13;37.07;;;-0.50;99.90;;;;;;5060899;28;36987;-74
2021/01/25 08:48:42;;;;;;;45.90;28.67;;;-0.50;99.90;;;;;;5083972;28;39651;-75
2021/01/25 08:51:30;;;;;;;51.83;30.80;;;-0.30;99.90;;;;;;5073792;28;37656;-74
2021/01/25 08:54:26;;;;;;;48.20;29.30;;;-0.20;99.90;;;;;;5086280;28;37906;-74
2021/01/25 08:56:53;;;;;;;61.47;35.43;;;-0.10;99.90;;;;;;5081238;28;48772;-74
2021/01/25 08:59:28;;;;;;;53.73;31.77;;;-0.10;99.90;;;;;;5078279;28;39854;-75
2021/01/25 09:01:54;;;;;;;61.70;32.97;;;-0.10;99.90;;;;;;5071106;28;39060;-73
2021/01/25 09:04:20;;;;;;;52.80;31.13;;;-0.10;99.90;;;;;;5082615;28;38400;-74
2021/01/25 09:06:49;;;;;;;60.63;32.60;;;-0.10;99.90;;;;;;5089004;27;37655;-73
2021/01/25 09:09:16;;;;;;;52.47;30.47;;;-0.10;99.90;;;;;;5091047;28;36786;-73
2021/01/25 09:11:43;;;;;;;68.53;37.53;;;-0.10;99.90;;;;;;5095151;28;39438;-73
2021/01/25 09:14:10;;;;;;;62.07;35.83;;;0.00;99.90;;;;;;5089753;28;37998;-73
2021/01/25 09:16:36;;;;;;;67.20;38.63;;;0.10;99.90;;;;;;5075830;28;35946;-73
2021/01/25 09:19:02;;;;;;;72.17;38.50;;;0.30;99.90;;;;;;5073120;28;35290;-74
2021/01/25 09:21:28;;;;;;;72.43;39.30;;;0.40;99.90;;;;;;5074196;28;39106;-74
2021/01/25 09:23:54;;;;;;;68.27;38.47;;;0.50;99.90;;;;;;5074927;28;37405;-73
2021/01/25 09:26:20;;;;;;;65.80;34.13;;;0.60;99.90;;;;;;5087108;28;37648;-74
2021/01/25 09:28:47;;;;;;;55.57;32.83;;;0.70;99.90;;;;;;5073135;28;39351;-74
2021/01/25 09:31:14;;;;;;;63.53;34.63;;;0.80;99.90;;;;;;5084351;28;38770;-73
2021/01/25 09:33:40;;;;;;;67.60;35.70;;;0.90;99.90;;;;;;5083431;28;39253;-73
2021/01/25 09:36:06;;;;;;;60.13;34.33;;;0.90;99.90;;;;;;5073749;27;37370;-74
2021/01/25 09:38:32;;;;;;;56.00;32.53;;;1.00;99.90;;;;;;5068154;28;37540;-74
2021/01/25 09:40:59;;;;;;;71.87;40.07;;;1.10;99.90;;;;;;5061131;28;38474;-74
2021/01/25 09:43:25;;;;;;;54.00;33.90;;;1.20;99.90;;;;;;5074080;28;38432;-74
2021/01/25 09:45:51;;;;;;;65.10;35.37;;;1.20;99.90;;;;;;5083994;28;37526;-74
2021/01/25 09:48:17;;;;;;;57.80;35.37;;;1.30;99.90;;;;;;5079906;28;38396;-74
2021/01/25 09:50:47;;;;;;;56.57;34.83;;;1.40;99.90;;;;;;5089570;28;39746;-75
2021/01/25 09:53:14;;;;;;;52.47;33.10;;;1.40;99.90;;;;;;5071058;28;37538;-74
2021/01/25 09:55:41;;;;;;;59.67;35.43;;;1.60;99.90;;;;;;5074588;28;38527;-74
2021/01/25 09:58:07;;;;;;;53.77;33.00;;;1.60;99.90;;;;;;5076305;28;38697;-74
2021/01/25 10:00:33;;;;;;;55.43;34.27;;;1.70;99.90;;;;;;5073998;28;38801;-74
2021/01/25 10:02:59;;;;;;;52.70;32.00;;;1.80;99.90;;;;;;5069567;28;39095;-74
2021/01/25 10:05:25;;;;;;;54.10;31.07;;;1.90;99.90;;;;;;5069169;28;38412;-74
2021/01/25 10:07:51;;;;;;;47.20;28.80;;;2.10;99.90;;;;;;5078345;28;39899;-74
2021/01/25 10:10:18;;;;;;;51.10;30.43;;;2.20;99.90;;;;;;5093965;28;38743;-74
2021/01/25 10:12:44;;;;;;;39.47;23.97;;;2.10;99.90;;;;;;5086682;28;38475;-74
2021/01/25 10:15:14;;;;;;;38.80;22.20;;;2.20;99.90;;;;;;5074540;28;37070;-73
2021/01/25 10:17:40;;;;;;;36.83;21.90;;;2.30;99.90;;;;;;5061226;28;39472;-73
2021/01/25 10:20:07;;;;;;;37.93;24.50;;;2.40;99.90;;;;;;5069741;28;38204;-74
2021/01/25 10:22:33;;;;;;;41.37;23.50;;;2.50;99.90;;;;;;5077626;28;37522;-72
2021/01/25 10:24:59;;;;;;;40.10;24.43;;;2.60;99.90;;;;;;5079617;28;37147;-72
2021/01/25 10:27:26;;;;;;;46.13;28.07;;;2.60;99.90;;;;;;5071072;28;37930;-74
2021/01/25 10:29:52;;;;;;;43.70;25.47;;;2.60;99.90;;;;;;5082637;28;38734;-74
2021/01/25 10:32:19;;;;;;;37.70;24.30;;;2.70;99.90;;;;;;5062354;28;37759;-74
2021/01/25 10:34:45;;;;;;;47.47;26.87;;;2.70;99.90;;;;;;5067471;28;37483;-74
2021/01/25 10:37:11;;;;;;;49.50;31.07;;;2.80;99.90;;;;;;5072608;28;39283;-74
2021/01/25 10:39:37;;;;;;;47.40;28.70;;;2.80;99.90;;;;;;5081725;28;38001;-74
2021/01/25 10:42:04;;;;;;;40.73;27.37;;;2.90;99.90;;;;;;5074310;28;38896;-73
2021/01/25 10:44:30;;;;;;;42.57;26.37;;;3.00;99.90;;;;;;5092018;28;38388;-74
2021/01/25 10:46:56;;;;;;;43.63;29.23;;;3.10;99.90;;;;;;5079775;28;37408;-74
2021/01/25 10:49:22;;;;;;;44.30;28.47;;;3.20;99.90;;;;;;5078719;27;38937;-75
2021/01/25 10:51:48;;;;;;;42.23;28.53;;;3.30;99.90;;;;;;5084062;28;38602;-73
2021/01/25 10:54:14;;;;;;;42.20;26.83;;;3.40;99.90;;;;;;5089524;28;37425;-74
2021/01/25 10:56:40;;;;;;;41.93;26.10;;;3.40;99.90;;;;;;5080709;28;38630;-74
2021/01/25 10:59:06;;;;;;;44.27;27.97;;;3.50;99.90;;;;;;5064168;28;39020;-74
2021/01/25 11:01:33;;;;;;;42.07;25.90;;;3.60;99.90;;;;;;5084755;28;39796;-74
2021/01/25 11:03:59;;;;;;;42.00;24.97;;;3.60;99.90;;;;;;5085215;28;38370;-74
2021/01/25 11:06:25;;;;;;;35.90;23.83;;;3.80;99.90;;;;;;5087428;28;39861;-74
2021/01/25 11:08:51;;;;;;;36.07;23.63;;;3.80;99.90;;;;;;5072895;28;39298;-74
2021/01/25 11:11:18;;;;;;;38.57;24.97;;;3.90;99.90;;;;;;5090789;28;39242;-75
2021/01/25 11:13:44;;;;;;;35.80;24.17;;;4.00;99.90;;;;;;5095617;28;38907;-75
2021/01/25 11:16:10;;;;;;;40.93;24.53;;;4.20;99.90;;;;;;5089110;28;38564;-74
2021/01/25 11:18:36;;;;;;;33.23;20.83;;;4.30;99.90;;;;;;5070307;28;40279;-74
2021/01/25 11:21:02;;;;;;;34.77;22.30;;;4.40;99.90;;;;;;5072533;28;40004;-74
2021/01/25 11:23:28;;;;;;;33.53;22.03;;;4.60;99.90;;;;;;5069932;28;39098;-75
2021/01/25 11:25:55;;;;;;;33.23;22.63;;;4.80;99.90;;;;;;5081211;28;39798;-75
2021/01/25 11:28:22;;;;;;;26.93;19.07;;;5.00;99.90;;;;;;5075881;28;39142;-75
2021/01/25 11:30:49;;;;;;;27.80;18.97;;;5.00;99.90;;;;;;5093871;28;39839;-74
2021/01/25 11:33:15;;;;;;;25.70;17.63;;;5.20;99.90;;;;;;5087987;27;37310;-75
2021/01/25 11:35:41;;;;;;;28.30;17.57;;;5.40;99.90;;;;;;5090127;28;40149;-75
2021/01/25 11:38:07;;;;;;;24.93;16.13;;;5.40;99.90;;;;;;5075536;28;39457;-77
2021/01/25 11:40:34;;;;;;;24.80;14.90;;;5.50;99.90;;;;;;5094024;28;39336;-74
2021/01/25 11:43:00;;;;;;;22.33;14.10;;;5.50;99.90;;;;;;5087659;28;38405;-75
2021/01/25 11:45:26;;;;;;;19.20;14.27;;;5.50;99.90;;;;;;5094131;27;38867;-75
2021/01/25 11:47:52;;;;;;;23.10;13.13;;;5.50;99.90;;;;;;5069600;28;39663;-75
2021/01/25 11:50:18;;;;;;;18.93;12.57;;;5.50;99.90;;;;;;5095901;28;39445;-75
2021/01/25 11:52:44;;;;;;;15.53;9.40;;;5.50;99.90;;;;;;5066783;28;39973;-75
2021/01/25 11:55:11;;;;;;;13.07;8.83;;;5.60;99.90;;;;;;5095741;28;39879;-77
2021/01/25 11:57:37;;;;;;;16.17;9.80;;;5.60;99.90;;;;;;5098729;28;38588;-74
2021/01/25 12:00:08;;;;;;;16.80;10.93;;;5.70;99.90;;;;;;5073733;28;38168;-74
2021/01/25 12:02:34;;;;;;;15.83;10.40;;;5.80;99.90;;;;;;5093612;28;47607;-74
2021/01/25 12:05:00;;;;;;;11.40;6.13;;;5.80;99.90;;;;;;5077995;28;39418;-74
2021/01/25 12:07:27;;;;;;;11.10;6.60;;;5.90;99.90;;;;;;5088533;28;39490;-74
2021/01/25 12:09:53;;;;;;;11.47;6.57;;;5.90;99.90;;;;;;5072344;28;38663;-73
2021/01/25 12:12:19;;;;;;;9.67;6.80;;;5.90;99.90;;;;;;5070029;28;38116;-74
2021/01/25 12:14:45;;;;;;;12.47;7.97;;;6.00;99.90;;;;;;5083125;28;38465;-75
2021/01/25 12:17:11;;;;;;;13.20;7.90;;;6.00;99.90;;;;;;5052884;28;39275;-74
2021/01/25 12:19:37;;;;;;;13.97;7.70;;;5.90;99.90;;;;;;5075407;28;38248;-73
2021/01/25 12:22:03;;;;;;;12.87;7.30;;;5.90;99.90;;;;;;5076197;28;38587;-74
2021/01/25 12:24:30;;;;;;;9.33;5.70;;;5.90;99.90;;;;;;5096138;28;38708;-75
2021/01/25 12:26:56;;;;;;;11.87;7.27;;;6.00;99.90;;;;;;5076935;28;39404;-74
2021/01/25 12:29:22;;;;;;;11.73;7.67;;;6.00;99.90;;;;;;5090616;27;38607;-75
2021/01/25 12:31:48;;;;;;;12.70;7.63;;;6.10;99.90;;;;;;5087318;28;35963;-75
2021/01/25 12:34:15;;;;;;;12.17;8.27;;;6.10;99.90;;;;;;5062690;28;39632;-75
2021/01/25 12:36:41;;;;;;;11.93;7.53;;;6.20;99.90;;;;;;5069156;28;40380;-74
2021/01/25 12:39:08;;;;;;;12.40;6.50;;;6.50;99.90;;;;;;5084971;28;39693;-72